sensor_id;sensor_type;location;lat;lon;timestamp;temperature;humidity
52058;DHT22;38063;53.210;6.504;2023-02-26T00:00:58;1.70;99.90
52058;DHT22;38063;53.210;6.504;2023-02-26T00:03:24;1.70;99.90
52058;DHT22;38063;53.210;6.504;2023-02-26T00:05:49;1.80;99.90
52058;DHT22;38063;53.210;6.504;2023-02-26T00:08:15;1.80;99.90
52058;DHT22;38063;53.210;6.504;2023-02-26T00:10:41;1.80;99.90
52058;DHT22;38063;53.210;6.504;2023-02-26T00:13:09;1.90;99.90
52058;DHT22;38063;53.210;6.504;2023-02-26T00:15:36;1.90;99.90
52058;DHT22;38063;53.210;6.504;2023-02-26T00:18:12;1.90;99.90
52058;DHT22;38063;53.210;6.504;2023-02-26T00:20:40;1.90;99.90
52058;DHT22;38063;53.210;6.504;2023-02-26T00:23:11;1.90;99.90
52058;DHT22;38063;53.210;6.504;2023-02-26T00:25:39;1.90;99.90
52058;DHT22;38063;53.210;6.504;2023-02-26T00:28:06;2.00;99.90
52058;DHT22;38063;53.210;6.504;2023-02-26T00:30:32;2.00;99.90
52058;DHT22;38063;53.210;6.504;2023-02-26T00:32:58;2.00;99.90
52058;DHT22;38063;53.210;6.504;2023-02-26T00:35:24;1.90;99.90
52058;DHT22;38063;53.210;6.504;2023-02-26T00:38:02;1.90;99.90
52058;DHT22;38063;53.210;6.504;2023-02-26T00:43:12;1.90;99.90
52058;DHT22;38063;53.210;6.504;2023-02-26T00:45:46;1.90;99.90
52058;DHT22;38063;53.210;6.504;2023-02-26T00:49:09;1.80;99.90
52058;DHT22;38063;53.210;6.504;2023-02-26T00:51:30;1.80;99.90
52058;DHT22;38063;53.210;6.504;2023-02-26T00:54:11;1.70;99.90
52058;DHT22;38063;53.210;6.504;2023-02-26T00:56:37;1.70;99.90
52058;DHT22;38063;53.210;6.504;2023-02-26T00:59:03;1.70;99.90
52058;DHT22;38063;53.210;6.504;2023-02-26T01:01:29;1.70;99.90
52058;DHT22;38063;53.210;6.504;2023-02-26T01:03:55;1.70;99.90
52058;DHT22;38063;53.210;6.504;2023-02-26T01:06:21;1.60;99.90
52058;DHT22;38063;53.210;6.504;2023-02-26T01:11:35;1.50;99.90
52058;DHT22;38063;53.210;6.504;2023-02-26T01:14:02;1.50;99.90
52058;DHT22;38063;53.210;6.504;2023-02-26T01:16:30;1.40;99.90
52058;DHT22;38063;53.210;6.504;2023-02-26T01:19:08;1.40;99.90
52058;DHT22;38063;53.210;6.504;2023-02-26T01:21:41;1.30;99.90
52058;DHT22;38063;53.210;6.504;2023-02-26T01:24:12;1.30;99.90
52058;DHT22;38063;53.210;6.504;2023-02-26T01:26:39;1.20;99.90
52058;DHT22;38063;53.210;6.504;2023-02-26T01:29:05;1.20;99.90
52058;DHT22;38063;53.210;6.504;2023-02-26T01:35:07;1.10;99.90
52058;DHT22;38063;53.210;6.504;2023-02-26T01:42:24;1.00;99.90
52058;DHT22;38063;53.210;6.504;2023-02-26T01:45:10;0.90;99.90
52058;DHT22;38063;53.210;6.504;2023-02-26T01:47:55;0.90;99.90
52058;DHT22;38063;53.210;6.504;2023-02-26T01:50:23;0.80;99.90
52058;DHT22;38063;53.210;6.504;2023-02-26T01:53:19;0.70;99.90
52058;DHT22;38063;53.210;6.504;2023-02-26T01:55:52;0.70;99.90
52058;DHT22;38063;53.210;6.504;2023-02-26T01:58:20;0.70;99.90
52058;DHT22;38063;53.210;6.504;2023-02-26T02:00:47;0.70;99.90
52058;DHT22;38063;53.210;6.504;2023-02-26T02:03:12;0.70;99.90
52058;DHT22;38063;53.210;6.504;2023-02-26T02:05:42;0.70;99.90
52058;DHT22;38063;53.210;6.504;2023-02-26T02:08:09;0.70;99.90
52058;DHT22;38063;53.210;6.504;2023-02-26T02:10:40;0.70;99.90
52058;DHT22;38063;53.210;6.504;2023-02-26T02:19:25;0.70;99.90
52058;DHT22;38063;53.210;6.504;2023-02-26T02:22:26;0.60;99.90
52058;DHT22;38063;53.210;6.504;2023-02-26T02:33:17;0.50;99.90
52058;DHT22;38063;53.210;6.504;2023-02-26T02:35:53;0.50;99.90
52058;DHT22;38063;53.210;6.504;2023-02-26T02:38:34;0.50;99.90
52058;DHT22;38063;53.210;6.504;2023-02-26T02:41:13;0.50;99.90
52058;DHT22;38063;53.210;6.504;2023-02-26T02:43:41;0.40;99.90
52058;DHT22;38063;53.210;6.504;2023-02-26T02:46:12;0.40;99.90
52058;DHT22;38063;53.210;6.504;2023-02-26T02:48:48;0.40;99.90
52058;DHT22;38063;53.210;6.504;2023-02-26T02:51:33;0.40;99.90
52058;DHT22;38063;53.210;6.504;2023-02-26T02:54:12;0.40;99.90
52058;DHT22;38063;53.210;6.504;2023-02-26T02:56:48;0.30;99.90
52058;DHT22;38063;53.210;6.504;2023-02-26T02:59:32;0.30;99.90
52058;DHT22;38063;53.210;6.504;2023-02-26T03:04:41;0.30;99.90
52058;DHT22;38063;53.210;6.504;2023-02-26T03:07:08;0.20;99.90
52058;DHT22;38063;53.210;6.504;2023-02-26T03:09:34;0.20;99.90
52058;DHT22;38063;53.210;6.504;2023-02-26T03:11:59;0.20;99.90
52058;DHT22;38063;53.210;6.504;2023-02-26T03:14:26;0.20;99.90
52058;DHT22;38063;53.210;6.504;2023-02-26T03:17:15;0.20;99.90
52058;DHT22;38063;53.210;6.504;2023-02-26T03:25:43;0.20;99.90
52058;DHT22;38063;53.210;6.504;2023-02-26T03:28:21;0.10;99.90
52058;DHT22;38063;53.210;6.504;2023-02-26T03:31:09;0.10;99.90
52058;DHT22;38063;53.210;6.504;2023-02-26T03:36:39;0.00;99.90
52058;DHT22;38063;53.210;6.504;2023-02-26T03:42:06;-0.10;99.90
52058;DHT22;38063;53.210;6.504;2023-02-26T03:44:43;-0.10;99.90
52058;DHT22;38063;53.210;6.504;2023-02-26T03:47:13;-0.10;99.90
52058;DHT22;38063;53.210;6.504;2023-02-26T03:50:00;-0.10;99.90
52058;DHT22;38063;53.210;6.504;2023-02-26T03:52:28;-0.20;99.90
52058;DHT22;38063;53.210;6.504;2023-02-26T03:55:04;-0.10;99.90
52058;DHT22;38063;53.210;6.504;2023-02-26T03:57:32;-0.10;99.90
52058;DHT22;38063;53.210;6.504;2023-02-26T03:59:57;0.00;99.90
52058;DHT22;38063;53.210;6.504;2023-02-26T04:02:33;0.00;99.90
52058;DHT22;38063;53.210;6.504;2023-02-26T04:05:09;0.10;99.90
52058;DHT22;38063;53.210;6.504;2023-02-26T04:07:38;0.10;99.90
52058;DHT22;38063;53.210;6.504;2023-02-26T04:10:04;0.10;99.90
52058;DHT22;38063;53.210;6.504;2023-02-26T04:12:31;0.20;99.90
52058;DHT22;38063;53.210;6.504;2023-02-26T04:14:57;0.20;99.90
52058;DHT22;38063;53.210;6.504;2023-02-26T04:17:23;0.20;99.90
52058;DHT22;38063;53.210;6.504;2023-02-26T04:19:49;0.30;99.90
52058;DHT22;38063;53.210;6.504;2023-02-26T04:22:15;0.30;99.90
52058;DHT22;38063;53.210;6.504;2023-02-26T04:24:41;0.40;99.90
52058;DHT22;38063;53.210;6.504;2023-02-26T04:27:07;0.40;99.90
52058;DHT22;38063;53.210;6.504;2023-02-26T04:29:32;0.40;99.90
52058;DHT22;38063;53.210;6.504;2023-02-26T04:31:58;0.50;99.90
52058;DHT22;38063;53.210;6.504;2023-02-26T04:34:25;0.50;99.90
52058;DHT22;38063;53.210;6.504;2023-02-26T04:36:51;0.50;99.90
52058;DHT22;38063;53.210;6.504;2023-02-26T04:39:17;0.50;99.90
52058;DHT22;38063;53.210;6.504;2023-02-26T04:41:42;0.50;99.90
52058;DHT22;38063;53.210;6.504;2023-02-26T04:44:08;0.40;99.90
52058;DHT22;38063;53.210;6.504;2023-02-26T04:46:34;0.40;99.90
52058;DHT22;38063;53.210;6.504;2023-02-26T04:48:59;0.40;99.90
52058;DHT22;38063;53.210;6.504;2023-02-26T04:51:25;0.40;99.90
52058;DHT22;38063;53.210;6.504;2023-02-26T04:53:51;0.40;99.90
52058;DHT22;38063;53.210;6.504;2023-02-26T04:56:17;0.40;99.90
52058;DHT22;38063;53.210;6.504;2023-02-26T04:58:42;0.40;99.90
52058;DHT22;38063;53.210;6.504;2023-02-26T05:01:08;0.50;99.90
52058;DHT22;38063;53.210;6.504;2023-02-26T05:03:34;0.30;99.90
52058;DHT22;38063;53.210;6.504;2023-02-26T05:05:59;0.30;99.90
52058;DHT22;38063;53.210;6.504;2023-02-26T05:08:25;0.30;99.90
52058;DHT22;38063;53.210;6.504;2023-02-26T05:10:51;0.30;99.90
52058;DHT22;38063;53.210;6.504;2023-02-26T05:13:20;0.40;99.90
52058;DHT22;38063;53.210;6.504;2023-02-26T05:15:46;0.40;99.90
52058;DHT22;38063;53.210;6.504;2023-02-26T05:18:11;0.40;99.90
52058;DHT22;38063;53.210;6.504;2023-02-26T05:20:37;0.40;99.90
52058;DHT22;38063;53.210;6.504;2023-02-26T05:23:03;0.40;99.90
52058;DHT22;38063;53.210;6.504;2023-02-26T05:25:29;0.40;99.90
52058;DHT22;38063;53.210;6.504;2023-02-26T05:27:55;0.80;99.90
52058;DHT22;38063;53.210;6.504;2023-02-26T05:30:21;0.40;99.90
52058;DHT22;38063;53.210;6.504;2023-02-26T05:32:47;0.40;99.90
52058;DHT22;38063;53.210;6.504;2023-02-26T05:35:13;0.40;99.90
52058;DHT22;38063;53.210;6.504;2023-02-26T05:37:39;0.40;99.90
52058;DHT22;38063;53.210;6.504;2023-02-26T05:40:06;0.40;99.90
52058;DHT22;38063;53.210;6.504;2023-02-26T05:42:35;0.30;99.90
52058;DHT22;38063;53.210;6.504;2023-02-26T05:45:01;0.30;99.90
52058;DHT22;38063;53.210;6.504;2023-02-26T05:47:26;0.30;99.90
52058;DHT22;38063;53.210;6.504;2023-02-26T05:49:52;0.20;99.90
52058;DHT22;38063;53.210;6.504;2023-02-26T05:52:18;0.20;99.90
52058;DHT22;38063;53.210;6.504;2023-02-26T05:54:43;0.20;99.90
52058;DHT22;38063;53.210;6.504;2023-02-26T05:57:09;0.20;99.90
52058;DHT22;38063;53.210;6.504;2023-02-26T05:59:35;0.20;99.90
52058;DHT22;38063;53.210;6.504;2023-02-26T06:02:00;0.20;99.90
52058;DHT22;38063;53.210;6.504;2023-02-26T06:04:26;0.10;99.90
52058;DHT22;38063;53.210;6.504;2023-02-26T06:06:52;0.10;99.90
52058;DHT22;38063;53.210;6.504;2023-02-26T06:09:17;0.20;99.90
52058;DHT22;38063;53.210;6.504;2023-02-26T06:11:43;0.10;99.90
52058;DHT22;38063;53.210;6.504;2023-02-26T06:14:08;0.10;99.90
52058;DHT22;38063;53.210;6.504;2023-02-26T06:16:34;0.10;99.90
52058;DHT22;38063;53.210;6.504;2023-02-26T06:19:01;0.10;99.90
52058;DHT22;38063;53.210;6.504;2023-02-26T06:21:27;0.10;99.90
52058;DHT22;38063;53.210;6.504;2023-02-26T06:23:52;0.10;99.90
52058;DHT22;38063;53.210;6.504;2023-02-26T06:26:18;0.10;99.90
52058;DHT22;38063;53.210;6.504;2023-02-26T06:28:44;0.10;99.90
52058;DHT22;38063;53.210;6.504;2023-02-26T06:31:09;0.10;99.90
52058;DHT22;38063;53.210;6.504;2023-02-26T06:33:35;0.00;99.90
52058;DHT22;38063;53.210;6.504;2023-02-26T06:36:01;0.00;99.90
52058;DHT22;38063;53.210;6.504;2023-02-26T06:38:27;0.00;99.90
52058;DHT22;38063;53.210;6.504;2023-02-26T06:40:53;-0.10;99.90
52058;DHT22;38063;53.210;6.504;2023-02-26T06:43:19;-0.10;99.90
52058;DHT22;38063;53.210;6.504;2023-02-26T06:45:45;-0.10;99.90
52058;DHT22;38063;53.210;6.504;2023-02-26T06:48:10;-0.10;99.90
52058;DHT22;38063;53.210;6.504;2023-02-26T06:50:36;-0.10;99.90
52058;DHT22;38063;53.210;6.504;2023-02-26T06:53:02;-0.10;99.90
52058;DHT22;38063;53.210;6.504;2023-02-26T06:55:28;-0.10;99.90
52058;DHT22;38063;53.210;6.504;2023-02-26T06:57:54;-0.10;99.90
52058;DHT22;38063;53.210;6.504;2023-02-26T07:00:20;-0.10;99.90
52058;DHT22;38063;53.210;6.504;2023-02-26T07:02:45;-0.10;99.90
52058;DHT22;38063;53.210;6.504;2023-02-26T07:05:11;-0.10;99.90
52058;DHT22;38063;53.210;6.504;2023-02-26T07:07:37;-0.10;99.90
52058;DHT22;38063;53.210;6.504;2023-02-26T07:10:03;-0.10;99.90
52058;DHT22;38063;53.210;6.504;2023-02-26T07:12:29;-0.10;99.90
52058;DHT22;38063;53.210;6.504;2023-02-26T07:14:55;-0.20;99.90
52058;DHT22;38063;53.210;6.504;2023-02-26T07:17:21;-0.10;99.90
52058;DHT22;38063;53.210;6.504;2023-02-26T07:19:47;-0.20;99.90
52058;DHT22;38063;53.210;6.504;2023-02-26T07:22:13;-0.20;99.90
52058;DHT22;38063;53.210;6.504;2023-02-26T07:24:40;-0.20;99.90
52058;DHT22;38063;53.210;6.504;2023-02-26T07:27:06;-0.10;99.90
52058;DHT22;38063;53.210;6.504;2023-02-26T07:29:32;-0.10;99.90
52058;DHT22;38063;53.210;6.504;2023-02-26T07:31:57;-0.10;99.90
52058;DHT22;38063;53.210;6.504;2023-02-26T07:34:23;-0.10;99.90
52058;DHT22;38063;53.210;6.504;2023-02-26T07:36:48;0.30;99.90
52058;DHT22;38063;53.210;6.504;2023-02-26T07:39:14;-0.10;99.90
52058;DHT22;38063;53.210;6.504;2023-02-26T07:41:40;-0.10;99.90
52058;DHT22;38063;53.210;6.504;2023-02-26T07:44:06;0.00;99.90
52058;DHT22;38063;53.210;6.504;2023-02-26T07:46:31;0.00;99.90
52058;DHT22;38063;53.210;6.504;2023-02-26T07:48:57;0.00;99.90
52058;DHT22;38063;53.210;6.504;2023-02-26T07:51:23;0.00;99.90
52058;DHT22;38063;53.210;6.504;2023-02-26T07:53:48;0.00;99.90
52058;DHT22;38063;53.210;6.504;2023-02-26T07:56:14;0.00;99.90
52058;DHT22;38063;53.210;6.504;2023-02-26T07:58:39;0.10;99.90
52058;DHT22;38063;53.210;6.504;2023-02-26T08:01:05;0.10;99.90
52058;DHT22;38063;53.210;6.504;2023-02-26T08:03:31;0.20;99.90
52058;DHT22;38063;53.210;6.504;2023-02-26T08:05:57;0.20;99.90
52058;DHT22;38063;53.210;6.504;2023-02-26T08:08:25;0.20;99.90
52058;DHT22;38063;53.210;6.504;2023-02-26T08:10:51;0.20;99.90
52058;DHT22;38063;53.210;6.504;2023-02-26T08:13:17;0.20;99.90
52058;DHT22;38063;53.210;6.504;2023-02-26T08:15:43;0.20;99.90
52058;DHT22;38063;53.210;6.504;2023-02-26T08:18:10;0.20;99.90
52058;DHT22;38063;53.210;6.504;2023-02-26T08:20:35;0.30;99.90
52058;DHT22;38063;53.210;6.504;2023-02-26T08:23:01;0.30;99.90
52058;DHT22;38063;53.210;6.504;2023-02-26T08:25:26;0.40;99.90
52058;DHT22;38063;53.210;6.504;2023-02-26T08:27:52;1.20;99.90
52058;DHT22;38063;53.210;6.504;2023-02-26T08:30:18;0.50;99.90
52058;DHT22;38063;53.210;6.504;2023-02-26T08:32:44;0.60;99.90
52058;DHT22;38063;53.210;6.504;2023-02-26T08:35:10;0.70;99.90
52058;DHT22;38063;53.210;6.504;2023-02-26T08:37:37;0.70;99.90
52058;DHT22;38063;53.210;6.504;2023-02-26T08:40:04;0.80;99.90
52058;DHT22;38063;53.210;6.504;2023-02-26T08:42:30;0.90;99.90
52058;DHT22;38063;53.210;6.504;2023-02-26T08:44:56;1.00;99.90
52058;DHT22;38063;53.210;6.504;2023-02-26T08:47:21;1.10;99.90
52058;DHT22;38063;53.210;6.504;2023-02-26T08:49:47;1.10;99.90
52058;DHT22;38063;53.210;6.504;2023-02-26T08:52:12;1.20;99.90
52058;DHT22;38063;53.210;6.504;2023-02-26T08:54:38;1.30;99.90
52058;DHT22;38063;53.210;6.504;2023-02-26T08:57:06;1.40;99.90
52058;DHT22;38063;53.210;6.504;2023-02-26T08:59:32;1.50;99.90
52058;DHT22;38063;53.210;6.504;2023-02-26T09:01:58;1.60;99.90
52058;DHT22;38063;53.210;6.504;2023-02-26T09:04:23;1.90;99.90
52058;DHT22;38063;53.210;6.504;2023-02-26T09:06:50;1.80;99.90
52058;DHT22;38063;53.210;6.504;2023-02-26T09:09:17;1.90;99.90
52058;DHT22;38063;53.210;6.504;2023-02-26T09:11:44;2.10;99.90
52058;DHT22;38063;53.210;6.504;2023-02-26T09:14:10;2.10;99.90
52058;DHT22;38063;53.210;6.504;2023-02-26T09:16:36;2.30;99.90
52058;DHT22;38063;53.210;6.504;2023-02-26T09:19:03;2.40;99.90
52058;DHT22;38063;53.210;6.504;2023-02-26T09:21:29;2.50;99.90
52058;DHT22;38063;53.210;6.504;2023-02-26T09:23:55;2.50;99.90
52058;DHT22;38063;53.210;6.504;2023-02-26T09:26:20;2.60;99.90
52058;DHT22;38063;53.210;6.504;2023-02-26T09:28:46;2.60;99.90
52058;DHT22;38063;53.210;6.504;2023-02-26T09:31:12;2.70;99.90
52058;DHT22;38063;53.210;6.504;2023-02-26T09:33:37;2.80;99.90
52058;DHT22;38063;53.210;6.504;2023-02-26T09:36:04;2.90;99.90
52058;DHT22;38063;53.210;6.504;2023-02-26T09:38:29;3.00;99.90
52058;DHT22;38063;53.210;6.504;2023-02-26T09:41:05;3.10;99.90
52058;DHT22;38063;53.210;6.504;2023-02-26T09:49:02;3.30;99.90
52058;DHT22;38063;53.210;6.504;2023-02-26T09:51:31;3.40;99.90
52058;DHT22;38063;53.210;6.504;2023-02-26T09:53:58;3.40;99.90
52058;DHT22;38063;53.210;6.504;2023-02-26T09:56:25;3.50;99.90
52058;DHT22;38063;53.210;6.504;2023-02-26T09:58:52;3.60;99.90
52058;DHT22;38063;53.210;6.504;2023-02-26T10:01:30;3.60;99.90
52058;DHT22;38063;53.210;6.504;2023-02-26T10:12:17;3.80;99.90
52058;DHT22;38063;53.210;6.504;2023-02-26T10:19:50;3.80;99.90
52058;DHT22;38063;53.210;6.504;2023-02-26T10:22:39;3.80;99.90
52058;DHT22;38063;53.210;6.504;2023-02-26T10:25:16;3.80;99.90
52058;DHT22;38063;53.210;6.504;2023-02-26T10:27:50;3.80;99.90
52058;DHT22;38063;53.210;6.504;2023-02-26T10:30:51;3.90;99.90
52058;DHT22;38063;53.210;6.504;2023-02-26T10:35:57;3.90;99.90
52058;DHT22;38063;53.210;6.504;2023-02-26T10:38:30;3.90;99.90
52058;DHT22;38063;53.210;6.504;2023-02-26T10:41:07;4.00;99.90
52058;DHT22;38063;53.210;6.504;2023-02-26T10:43:41;4.10;99.90
52058;DHT22;38063;53.210;6.504;2023-02-26T10:51:39;4.50;99.90
52058;DHT22;38063;53.210;6.504;2023-02-26T10:56:42;4.70;99.90
52058;DHT22;38063;53.210;6.504;2023-02-26T10:59:08;4.80;99.90
52058;DHT22;38063;53.210;6.504;2023-02-26T11:01:35;4.80;99.90
52058;DHT22;38063;53.210;6.504;2023-02-26T11:04:05;4.90;99.90
52058;DHT22;38063;53.210;6.504;2023-02-26T11:06:36;4.90;99.90
52058;DHT22;38063;53.210;6.504;2023-02-26T11:09:12;4.90;99.90
52058;DHT22;38063;53.210;6.504;2023-02-26T11:11:42;4.90;99.90
52058;DHT22;38063;53.210;6.504;2023-02-26T11:14:10;4.90;99.90
52058;DHT22;38063;53.210;6.504;2023-02-26T11:16:44;4.90;99.90
52058;DHT22;38063;53.210;6.504;2023-02-26T11:19:13;5.00;99.90
52058;DHT22;38063;53.210;6.504;2023-02-26T11:21:40;5.10;99.90
52058;DHT22;38063;53.210;6.504;2023-02-26T11:24:10;5.80;99.90
52058;DHT22;38063;53.210;6.504;2023-02-26T11:26:38;5.20;99.90
52058;DHT22;38063;53.210;6.504;2023-02-26T11:29:14;5.20;99.90
52058;DHT22;38063;53.210;6.504;2023-02-26T11:31:40;5.30;99.90
52058;DHT22;38063;53.210;6.504;2023-02-26T11:34:09;5.30;99.90
52058;DHT22;38063;53.210;6.504;2023-02-26T11:36:41;5.30;99.90
52058;DHT22;38063;53.210;6.504;2023-02-26T11:39:17;5.40;99.90
52058;DHT22;38063;53.210;6.504;2023-02-26T11:41:46;5.40;99.90
52058;DHT22;38063;53.210;6.504;2023-02-26T11:44:33;5.50;99.90
52058;DHT22;38063;53.210;6.504;2023-02-26T11:47:04;5.70;99.90
52058;DHT22;38063;53.210;6.504;2023-02-26T11:49:30;5.70;99.90
52058;DHT22;38063;53.210;6.504;2023-02-26T11:52:14;5.80;99.90
52058;DHT22;38063;53.210;6.504;2023-02-26T11:54:43;5.80;99.90
52058;DHT22;38063;53.210;6.504;2023-02-26T11:57:23;6.00;99.90
52058;DHT22;38063;53.210;6.504;2023-02-26T11:59:51;6.10;99.90
52058;DHT22;38063;53.210;6.504;2023-02-26T12:02:22;6.10;99.90
52058;DHT22;38063;53.210;6.504;2023-02-26T12:04:51;6.00;99.90
52058;DHT22;38063;53.210;6.504;2023-02-26T12:07:18;6.10;99.90
52058;DHT22;38063;53.210;6.504;2023-02-26T12:09:45;6.30;99.90
52058;DHT22;38063;53.210;6.504;2023-02-26T12:18:14;6.30;99.90
52058;DHT22;38063;53.210;6.504;2023-02-26T12:26:23;6.00;99.90
52058;DHT22;38063;53.210;6.504;2023-02-26T12:45:55;7.30;99.90
52058;DHT22;38063;53.210;6.504;2023-02-26T13:08:28;6.30;99.90
52058;DHT22;38063;53.210;6.504;2023-02-26T13:11:13;6.50;99.90
52058;DHT22;38063;53.210;6.504;2023-02-26T13:14:34;6.30;99.90
52058;DHT22;38063;53.210;6.504;2023-02-26T13:19:47;6.10;99.90
52058;DHT22;38063;53.210;6.504;2023-02-26T13:22:19;6.10;99.90
52058;DHT22;38063;53.210;6.504;2023-02-26T13:24:53;6.00;99.90
52058;DHT22;38063;53.210;6.504;2023-02-26T13:27:24;5.90;99.90
52058;DHT22;38063;53.210;6.504;2023-02-26T13:32:33;6.20;99.90
52058;DHT22;38063;53.210;6.504;2023-02-26T13:35:04;6.50;99.90
52058;DHT22;38063;53.210;6.504;2023-02-26T13:37:40;6.60;99.90
52058;DHT22;38063;53.210;6.504;2023-02-26T13:43:05;6.10;99.90
52058;DHT22;38063;53.210;6.504;2023-02-26T13:51:33;6.40;99.90
52058;DHT22;38063;53.210;6.504;2023-02-26T13:54:02;6.40;99.90
52058;DHT22;38063;53.210;6.504;2023-02-26T14:02:49;6.20;99.90
52058;DHT22;38063;53.210;6.504;2023-02-26T14:05:23;6.20;99.90
52058;DHT22;38063;53.210;6.504;2023-02-26T14:13:41;6.20;99.90
52058;DHT22;38063;53.210;6.504;2023-02-26T14:16:33;6.10;99.90
52058;DHT22;38063;53.210;6.504;2023-02-26T14:21:46;5.80;99.90
52058;DHT22;38063;53.210;6.504;2023-02-26T14:24:22;5.80;99.90
52058;DHT22;38063;53.210;6.504;2023-02-26T14:29:58;6.00;99.90
52058;DHT22;38063;53.210;6.504;2023-02-26T14:32:29;6.00;99.90
52058;DHT22;38063;53.210;6.504;2023-02-26T14:35:31;5.90;99.90
52058;DHT22;38063;53.210;6.504;2023-02-26T14:38:03;5.80;99.90
52058;DHT22;38063;53.210;6.504;2023-02-26T14:40:38;5.70;99.90
52058;DHT22;38063;53.210;6.504;2023-02-26T14:43:06;5.70;99.90
52058;DHT22;38063;53.210;6.504;2023-02-26T14:45:41;5.50;99.90
52058;DHT22;38063;53.210;6.504;2023-02-26T14:48:12;5.90;99.90
52058;DHT22;38063;53.210;6.504;2023-02-26T14:53:56;5.80;99.90
52058;DHT22;38063;53.210;6.504;2023-02-26T14:56:49;5.80;99.90
52058;DHT22;38063;53.210;6.504;2023-02-26T15:02:29;5.90;99.90
52058;DHT22;38063;53.210;6.504;2023-02-26T15:13:33;5.30;99.90
52058;DHT22;38063;53.210;6.504;2023-02-26T15:24:10;5.30;99.90
52058;DHT22;38063;53.210;6.504;2023-02-26T15:26:41;5.10;99.90
52058;DHT22;38063;53.210;6.504;2023-02-26T15:29:10;5.00;99.90
52058;DHT22;38063;53.210;6.504;2023-02-26T15:31:44;4.80;99.90
52058;DHT22;38063;53.210;6.504;2023-02-26T15:34:14;4.80;99.90
52058;DHT22;38063;53.210;6.504;2023-02-26T15:36:50;4.90;99.90
52058;DHT22;38063;53.210;6.504;2023-02-26T15:39:17;5.00;99.90
52058;DHT22;38063;53.210;6.504;2023-02-26T15:41:47;4.90;99.90
52058;DHT22;38063;53.210;6.504;2023-02-26T15:44:18;4.90;99.90
52058;DHT22;38063;53.210;6.504;2023-02-26T15:46:55;4.90;99.90
52058;DHT22;38063;53.210;6.504;2023-02-26T15:49:33;4.80;99.90
52058;DHT22;38063;53.210;6.504;2023-02-26T15:52:01;4.80;99.90
52058;DHT22;38063;53.210;6.504;2023-02-26T15:54:34;4.80;99.90
52058;DHT22;38063;53.210;6.504;2023-02-26T15:57:02;4.80;99.90
52058;DHT22;38063;53.210;6.504;2023-02-26T15:59:30;4.80;99.90
52058;DHT22;38063;53.210;6.504;2023-02-26T16:01:57;4.70;99.90
52058;DHT22;38063;53.210;6.504;2023-02-26T16:04:26;4.70;99.90
52058;DHT22;38063;53.210;6.504;2023-02-26T16:06:56;4.70;99.90
52058;DHT22;38063;53.210;6.504;2023-02-26T16:09:47;4.80;99.90
52058;DHT22;38063;53.210;6.504;2023-02-26T16:12:21;4.80;99.90
52058;DHT22;38063;53.210;6.504;2023-02-26T16:14:58;4.80;99.90
52058;DHT22;38063;53.210;6.504;2023-02-26T16:17:31;4.80;99.90
52058;DHT22;38063;53.210;6.504;2023-02-26T16:20:01;5.00;99.90
52058;DHT22;38063;53.210;6.504;2023-02-26T16:22:42;4.90;99.90
52058;DHT22;38063;53.210;6.504;2023-02-26T16:28:22;4.70;99.90
52058;DHT22;38063;53.210;6.504;2023-02-26T16:30:53;4.50;99.90
52058;DHT22;38063;53.210;6.504;2023-02-26T16:33:22;4.50;99.90
52058;DHT22;38063;53.210;6.504;2023-02-26T16:38:41;4.40;99.90
52058;DHT22;38063;53.210;6.504;2023-02-26T16:41:09;4.30;99.90
52058;DHT22;38063;53.210;6.504;2023-02-26T16:46:32;4.30;99.90
52058;DHT22;38063;53.210;6.504;2023-02-26T16:51:41;4.20;99.90
52058;DHT22;38063;53.210;6.504;2023-02-26T16:54:14;4.10;99.90
52058;DHT22;38063;53.210;6.504;2023-02-26T16:56:42;4.10;99.90
52058;DHT22;38063;53.210;6.504;2023-02-26T16:59:22;4.50;99.90
52058;DHT22;38063;53.210;6.504;2023-02-26T17:02:00;4.10;99.90
52058;DHT22;38063;53.210;6.504;2023-02-26T17:04:30;4.00;99.90
52058;DHT22;38063;53.210;6.504;2023-02-26T17:06:57;4.00;99.90
52058;DHT22;38063;53.210;6.504;2023-02-26T17:09:47;4.00;99.90
52058;DHT22;38063;53.210;6.504;2023-02-26T17:12:18;3.90;99.90
52058;DHT22;38063;53.210;6.504;2023-02-26T17:14:50;3.80;99.90
52058;DHT22;38063;53.210;6.504;2023-02-26T17:17:17;3.80;99.90
52058;DHT22;38063;53.210;6.504;2023-02-26T17:19:42;3.80;99.90
52058;DHT22;38063;53.210;6.504;2023-02-26T17:22:13;3.70;99.90
52058;DHT22;38063;53.210;6.504;2023-02-26T17:24:41;3.70;99.90
52058;DHT22;38063;53.210;6.504;2023-02-26T17:27:27;3.70;99.90
52058;DHT22;38063;53.210;6.504;2023-02-26T17:29:56;3.70;99.90
52058;DHT22;38063;53.210;6.504;2023-02-26T17:32:26;3.60;99.90
52058;DHT22;38063;53.210;6.504;2023-02-26T17:34:52;3.60;99.90
52058;DHT22;38063;53.210;6.504;2023-02-26T17:37:18;3.60;99.90
52058;DHT22;38063;53.210;6.504;2023-02-26T17:39:44;3.60;99.90
52058;DHT22;38063;53.210;6.504;2023-02-26T17:42:16;3.60;99.90
52058;DHT22;38063;53.210;6.504;2023-02-26T17:44:44;3.50;99.90
52058;DHT22;38063;53.210;6.504;2023-02-26T17:47:17;3.50;99.90
52058;DHT22;38063;53.210;6.504;2023-02-26T17:49:43;3.50;99.90
52058;DHT22;38063;53.210;6.504;2023-02-26T17:52:09;3.50;99.90
52058;DHT22;38063;53.210;6.504;2023-02-26T17:54:35;3.40;99.90
52058;DHT22;38063;53.210;6.504;2023-02-26T17:57:01;3.40;99.90
52058;DHT22;38063;53.210;6.504;2023-02-26T17:59:26;3.40;99.90
52058;DHT22;38063;53.210;6.504;2023-02-26T18:01:53;3.40;99.90
52058;DHT22;38063;53.210;6.504;2023-02-26T18:04:19;3.40;99.90
52058;DHT22;38063;53.210;6.504;2023-02-26T18:06:44;3.40;99.90
52058;DHT22;38063;53.210;6.504;2023-02-26T18:09:11;3.40;99.90
52058;DHT22;38063;53.210;6.504;2023-02-26T18:11:37;3.40;99.90
52058;DHT22;38063;53.210;6.504;2023-02-26T18:14:03;3.40;99.90
52058;DHT22;38063;53.210;6.504;2023-02-26T18:16:35;3.30;99.90
52058;DHT22;38063;53.210;6.504;2023-02-26T18:19:02;3.30;99.90
52058;DHT22;38063;53.210;6.504;2023-02-26T18:21:28;3.30;99.90
52058;DHT22;38063;53.210;6.504;2023-02-26T18:23:54;3.30;99.90
52058;DHT22;38063;53.210;6.504;2023-02-26T18:26:22;3.30;99.90
52058;DHT22;38063;53.210;6.504;2023-02-26T18:28:49;3.20;99.90
52058;DHT22;38063;53.210;6.504;2023-02-26T18:31:16;3.20;99.90
52058;DHT22;38063;53.210;6.504;2023-02-26T18:33:42;3.20;99.90
52058;DHT22;38063;53.210;6.504;2023-02-26T18:36:26;3.10;99.90
52058;DHT22;38063;53.210;6.504;2023-02-26T18:39:00;3.10;99.90
52058;DHT22;38063;53.210;6.504;2023-02-26T18:41:27;3.10;99.90
52058;DHT22;38063;53.210;6.504;2023-02-26T18:43:53;3.00;99.90
52058;DHT22;38063;53.210;6.504;2023-02-26T18:46:19;2.90;99.90
52058;DHT22;38063;53.210;6.504;2023-02-26T18:48:44;2.90;99.90
52058;DHT22;38063;53.210;6.504;2023-02-26T18:51:12;2.90;99.90
52058;DHT22;38063;53.210;6.504;2023-02-26T18:53:37;2.90;99.90
52058;DHT22;38063;53.210;6.504;2023-02-26T18:56:03;2.80;99.90
52058;DHT22;38063;53.210;6.504;2023-02-26T18:58:29;2.80;99.90
52058;DHT22;38063;53.210;6.504;2023-02-26T19:00:55;2.80;99.90
52058;DHT22;38063;53.210;6.504;2023-02-26T19:03:21;2.80;99.90
52058;DHT22;38063;53.210;6.504;2023-02-26T19:05:55;2.80;99.90
52058;DHT22;38063;53.210;6.504;2023-02-26T19:08:21;2.80;99.90